sensor_id;sensor_type;location;lat;lon;timestamp;temperature;humidity
13174;DHT22;6652;48.802;9.190;2023-02-15T00:02:01;1.10;99.90
13174;DHT22;6652;48.802;9.190;2023-02-15T00:04:29;0.90;99.90
13174;DHT22;6652;48.802;9.190;2023-02-15T00:07:13;0.80;99.90
13174;DHT22;6652;48.802;9.190;2023-02-15T00:09:40;0.80;99.90
13174;DHT22;6652;48.802;9.190;2023-02-15T00:12:08;0.80;99.90
13174;DHT22;6652;48.802;9.190;2023-02-15T00:14:35;0.80;99.90
13174;DHT22;6652;48.802;9.190;2023-02-15T00:17:02;0.70;99.90
13174;DHT22;6652;48.802;9.190;2023-02-15T00:19:29;0.80;99.90
13174;DHT22;6652;48.802;9.190;2023-02-15T00:21:56;0.70;99.90
13174;DHT22;6652;48.802;9.190;2023-02-15T00:24:23;0.70;99.90
13174;DHT22;6652;48.802;9.190;2023-02-15T00:26:50;0.70;99.90
13174;DHT22;6652;48.802;9.190;2023-02-15T00:29:19;0.70;99.90
13174;DHT22;6652;48.802;9.190;2023-02-15T00:31:46;0.70;99.90
13174;DHT22;6652;48.802;9.190;2023-02-15T00:34:16;0.70;99.90
13174;DHT22;6652;48.802;9.190;2023-02-15T00:36:44;0.60;99.90
13174;DHT22;6652;48.802;9.190;2023-02-15T00:39:11;0.90;99.90
13174;DHT22;6652;48.802;9.190;2023-02-15T00:41:38;0.60;99.90
13174;DHT22;6652;48.802;9.190;2023-02-15T00:44:06;0.60;99.90
13174;DHT22;6652;48.802;9.190;2023-02-15T00:46:34;0.60;99.90
13174;DHT22;6652;48.802;9.190;2023-02-15T00:49:01;0.60;99.90
13174;DHT22;6652;48.802;9.190;2023-02-15T00:51:28;0.60;99.90
13174;DHT22;6652;48.802;9.190;2023-02-15T00:53:55;0.60;99.90
13174;DHT22;6652;48.802;9.190;2023-02-15T00:56:22;0.50;99.90
13174;DHT22;6652;48.802;9.190;2023-02-15T00:58:49;0.50;99.90
13174;DHT22;6652;48.802;9.190;2023-02-15T01:01:17;0.50;99.90
13174;DHT22;6652;48.802;9.190;2023-02-15T01:03:46;0.50;99.90
13174;DHT22;6652;48.802;9.190;2023-02-15T01:06:14;0.50;99.90
13174;DHT22;6652;48.802;9.190;2023-02-15T01:08:42;0.50;99.90
13174;DHT22;6652;48.802;9.190;2023-02-15T01:11:11;0.40;99.90
13174;DHT22;6652;48.802;9.190;2023-02-15T01:13:38;0.50;99.90
13174;DHT22;6652;48.802;9.190;2023-02-15T01:16:05;0.50;99.90
13174;DHT22;6652;48.802;9.190;2023-02-15T01:18:32;0.40;99.90
13174;DHT22;6652;48.802;9.190;2023-02-15T01:21:09;0.40;99.90
13174;DHT22;6652;48.802;9.190;2023-02-15T01:23:35;0.40;99.90
13174;DHT22;6652;48.802;9.190;2023-02-15T01:26:02;0.30;99.90
13174;DHT22;6652;48.802;9.190;2023-02-15T01:28:29;0.30;99.90
13174;DHT22;6652;48.802;9.190;2023-02-15T01:30:56;0.30;99.90
13174;DHT22;6652;48.802;9.190;2023-02-15T01:33:24;0.30;99.90
13174;DHT22;6652;48.802;9.190;2023-02-15T01:35:56;0.30;99.90
13174;DHT22;6652;48.802;9.190;2023-02-15T01:38:24;0.30;99.90
13174;DHT22;6652;48.802;9.190;2023-02-15T01:40:51;0.20;99.90
13174;DHT22;6652;48.802;9.190;2023-02-15T01:43:19;0.20;99.90
13174;DHT22;6652;48.802;9.190;2023-02-15T01:45:47;0.20;99.90
13174;DHT22;6652;48.802;9.190;2023-02-15T01:48:19;0.20;99.90
13174;DHT22;6652;48.802;9.190;2023-02-15T01:50:51;0.20;99.90
13174;DHT22;6652;48.802;9.190;2023-02-15T01:53:23;0.20;99.90
13174;DHT22;6652;48.802;9.190;2023-02-15T01:55:55;0.20;99.90
13174;DHT22;6652;48.802;9.190;2023-02-15T01:58:26;0.10;99.90
13174;DHT22;6652;48.802;9.190;2023-02-15T02:00:55;0.10;99.90
13174;DHT22;6652;48.802;9.190;2023-02-15T02:03:34;0.10;99.90
13174;DHT22;6652;48.802;9.190;2023-02-15T02:06:03;0.10;99.90
13174;DHT22;6652;48.802;9.190;2023-02-15T02:08:30;0.10;99.90
13174;DHT22;6652;48.802;9.190;2023-02-15T02:10:59;0.10;99.90
13174;DHT22;6652;48.802;9.190;2023-02-15T02:13:25;0.10;99.90
13174;DHT22;6652;48.802;9.190;2023-02-15T02:16:00;0.10;99.90
13174;DHT22;6652;48.802;9.190;2023-02-15T02:18:39;0.10;99.90
13174;DHT22;6652;48.802;9.190;2023-02-15T02:21:38;0.00;99.90
13174;DHT22;6652;48.802;9.190;2023-02-15T02:24:40;0.00;99.90
13174;DHT22;6652;48.802;9.190;2023-02-15T02:27:23;0.00;99.90
13174;DHT22;6652;48.802;9.190;2023-02-15T02:33:16;-0.10;99.90
13174;DHT22;6652;48.802;9.190;2023-02-15T02:35:51;-0.20;99.90
13174;DHT22;6652;48.802;9.190;2023-02-15T02:38:26;-0.20;99.90
13174;DHT22;6652;48.802;9.190;2023-02-15T02:41:03;-0.20;99.90
13174;DHT22;6652;48.802;9.190;2023-02-15T02:43:38;-0.20;99.90
13174;DHT22;6652;48.802;9.190;2023-02-15T02:46:12;-0.20;99.90
13174;DHT22;6652;48.802;9.190;2023-02-15T02:48:41;-0.20;99.90
13174;DHT22;6652;48.802;9.190;2023-02-15T02:51:08;-0.10;99.90
13174;DHT22;6652;48.802;9.190;2023-02-15T02:53:35;-0.10;99.90
13174;DHT22;6652;48.802;9.190;2023-02-15T02:56:09;-0.10;99.90
13174;DHT22;6652;48.802;9.190;2023-02-15T02:58:40;-0.20;99.90
13174;DHT22;6652;48.802;9.190;2023-02-15T03:01:13;-0.20;99.90
13174;DHT22;6652;48.802;9.190;2023-02-15T03:03:44;-0.20;99.90
13174;DHT22;6652;48.802;9.190;2023-02-15T03:06:17;-0.20;99.90
13174;DHT22;6652;48.802;9.190;2023-02-15T03:08:47;-0.30;99.90
13174;DHT22;6652;48.802;9.190;2023-02-15T03:11:14;-0.30;99.90
13174;DHT22;6652;48.802;9.190;2023-02-15T03:13:42;-0.20;99.90
13174;DHT22;6652;48.802;9.190;2023-02-15T03:16:10;-0.30;99.90
13174;DHT22;6652;48.802;9.190;2023-02-15T03:18:57;-0.30;99.90
13174;DHT22;6652;48.802;9.190;2023-02-15T03:21:32;-0.30;99.90
13174;DHT22;6652;48.802;9.190;2023-02-15T03:24:06;-0.40;99.90
13174;DHT22;6652;48.802;9.190;2023-02-15T03:26:36;-0.40;99.90
13174;DHT22;6652;48.802;9.190;2023-02-15T03:29:05;-0.20;99.90
13174;DHT22;6652;48.802;9.190;2023-02-15T03:31:37;0.30;99.90
13174;DHT22;6652;48.802;9.190;2023-02-15T03:34:08;-0.50;99.90
13174;DHT22;6652;48.802;9.190;2023-02-15T03:36:42;-0.50;99.90
13174;DHT22;6652;48.802;9.190;2023-02-15T03:39:19;-0.50;99.90
13174;DHT22;6652;48.802;9.190;2023-02-15T03:41:53;-0.50;99.90
13174;DHT22;6652;48.802;9.190;2023-02-15T03:44:26;-0.60;99.90
13174;DHT22;6652;48.802;9.190;2023-02-15T03:46:58;-0.60;99.90
13174;DHT22;6652;48.802;9.190;2023-02-15T03:49:34;-0.60;99.90
13174;DHT22;6652;48.802;9.190;2023-02-15T03:52:04;-0.60;99.90
13174;DHT22;6652;48.802;9.190;2023-02-15T03:54:34;-0.60;99.90
13174;DHT22;6652;48.802;9.190;2023-02-15T03:57:14;-0.60;99.90
13174;DHT22;6652;48.802;9.190;2023-02-15T04:00:00;-0.70;99.90
13174;DHT22;6652;48.802;9.190;2023-02-15T04:03:00;-0.20;99.90
13174;DHT22;6652;48.802;9.190;2023-02-15T04:05:31;-0.70;99.90
13174;DHT22;6652;48.802;9.190;2023-02-15T04:07:58;-0.70;99.90
13174;DHT22;6652;48.802;9.190;2023-02-15T04:10:25;-1.30;99.90
13174;DHT22;6652;48.802;9.190;2023-02-15T04:13:09;-0.70;99.90
13174;DHT22;6652;48.802;9.190;2023-02-15T04:15:36;-0.70;99.90
13174;DHT22;6652;48.802;9.190;2023-02-15T04:18:20;-0.70;99.90
13174;DHT22;6652;48.802;9.190;2023-02-15T04:21:02;-0.80;99.90
13174;DHT22;6652;48.802;9.190;2023-02-15T04:23:47;-0.80;99.90
13174;DHT22;6652;48.802;9.190;2023-02-15T04:26:31;-0.80;99.90
13174;DHT22;6652;48.802;9.190;2023-02-15T04:28:58;-0.80;99.90
13174;DHT22;6652;48.802;9.190;2023-02-15T04:31:24;-1.00;99.90
13174;DHT22;6652;48.802;9.190;2023-02-15T04:33:51;-0.90;99.90
13174;DHT22;6652;48.802;9.190;2023-02-15T04:36:20;-0.90;99.90
13174;DHT22;6652;48.802;9.190;2023-02-15T04:38:47;-1.00;99.90
13174;DHT22;6652;48.802;9.190;2023-02-15T04:41:14;-1.10;99.90
13174;DHT22;6652;48.802;9.190;2023-02-15T04:43:41;-1.40;99.90
13174;DHT22;6652;48.802;9.190;2023-02-15T04:46:08;-1.00;99.90
13174;DHT22;6652;48.802;9.190;2023-02-15T04:48:34;-1.00;99.90
13174;DHT22;6652;48.802;9.190;2023-02-15T04:51:05;-0.10;99.90
13174;DHT22;6652;48.802;9.190;2023-02-15T04:53:33;-1.00;99.90
13174;DHT22;6652;48.802;9.190;2023-02-15T04:56:00;-1.10;99.90
13174;DHT22;6652;48.802;9.190;2023-02-15T04:58:26;-1.10;99.90
13174;DHT22;6652;48.802;9.190;2023-02-15T05:00:55;-1.10;99.90
13174;DHT22;6652;48.802;9.190;2023-02-15T05:03:21;-1.10;99.90
13174;DHT22;6652;48.802;9.190;2023-02-15T05:05:48;-1.20;99.90
13174;DHT22;6652;48.802;9.190;2023-02-15T05:08:15;-0.20;99.90
13174;DHT22;6652;48.802;9.190;2023-02-15T05:10:44;-1.30;99.90
13174;DHT22;6652;48.802;9.190;2023-02-15T05:13:10;-1.40;99.90
13174;DHT22;6652;48.802;9.190;2023-02-15T05:15:37;-1.50;99.90
13174;DHT22;6652;48.802;9.190;2023-02-15T05:18:04;-1.50;99.90
13174;DHT22;6652;48.802;9.190;2023-02-15T05:20:32;-1.60;99.90
13174;DHT22;6652;48.802;9.190;2023-02-15T05:22:59;-1.60;99.90
13174;DHT22;6652;48.802;9.190;2023-02-15T05:25:26;-1.80;99.90
13174;DHT22;6652;48.802;9.190;2023-02-15T05:28:12;-1.60;99.90
13174;DHT22;6652;48.802;9.190;2023-02-15T05:30:47;-1.50;99.90
13174;DHT22;6652;48.802;9.190;2023-02-15T05:33:14;-1.50;99.90
13174;DHT22;6652;48.802;9.190;2023-02-15T05:35:41;-1.50;99.90
13174;DHT22;6652;48.802;9.190;2023-02-15T05:38:09;-1.50;99.90
13174;DHT22;6652;48.802;9.190;2023-02-15T05:40:35;-1.60;99.90
13174;DHT22;6652;48.802;9.190;2023-02-15T05:43:02;-1.60;99.90
13174;DHT22;6652;48.802;9.190;2023-02-15T05:45:30;-1.70;99.90
13174;DHT22;6652;48.802;9.190;2023-02-15T05:47:57;-2.10;99.90
13174;DHT22;6652;48.802;9.190;2023-02-15T05:50:24;-1.90;99.90
13174;DHT22;6652;48.802;9.190;2023-02-15T05:52:51;-2.00;99.90
13174;DHT22;6652;48.802;9.190;2023-02-15T05:55:18;-2.00;99.90
13174;DHT22;6652;48.802;9.190;2023-02-15T05:57:45;-1.90;99.90
13174;DHT22;6652;48.802;9.190;2023-02-15T06:00:13;-1.90;99.90
13174;DHT22;6652;48.802;9.190;2023-02-15T06:02:41;-1.90;99.90
13174;DHT22;6652;48.802;9.190;2023-02-15T06:05:08;-1.70;99.90
13174;DHT22;6652;48.802;9.190;2023-02-15T06:07:35;-1.10;99.90
13174;DHT22;6652;48.802;9.190;2023-02-15T06:10:03;-1.40;99.90
13174;DHT22;6652;48.802;9.190;2023-02-15T06:12:30;-1.30;99.90
13174;DHT22;6652;48.802;9.190;2023-02-15T06:14:57;-1.00;99.90
13174;DHT22;6652;48.802;9.190;2023-02-15T06:17:23;-1.10;99.90
13174;DHT22;6652;48.802;9.190;2023-02-15T06:19:51;-1.10;99.90
13174;DHT22;6652;48.802;9.190;2023-02-15T06:22:18;-1.20;99.90
13174;DHT22;6652;48.802;9.190;2023-02-15T06:24:46;-1.20;99.90
13174;DHT22;6652;48.802;9.190;2023-02-15T06:27:13;-1.30;99.90
13174;DHT22;6652;48.802;9.190;2023-02-15T06:29:39;-1.40;99.90
13174;DHT22;6652;48.802;9.190;2023-02-15T06:32:14;-1.50;99.90
13174;DHT22;6652;48.802;9.190;2023-02-15T06:34:44;-1.50;99.90
13174;DHT22;6652;48.802;9.190;2023-02-15T06:37:12;-1.60;99.90
13174;DHT22;6652;48.802;9.190;2023-02-15T06:39:39;-1.70;99.90
13174;DHT22;6652;48.802;9.190;2023-02-15T06:42:06;-1.10;99.90
13174;DHT22;6652;48.802;9.190;2023-02-15T06:44:33;-1.70;99.90
13174;DHT22;6652;48.802;9.190;2023-02-15T06:47:00;-1.70;99.90
13174;DHT22;6652;48.802;9.190;2023-02-15T06:49:26;-1.70;99.90
13174;DHT22;6652;48.802;9.190;2023-02-15T06:51:53;-1.70;99.90
13174;DHT22;6652;48.802;9.190;2023-02-15T06:54:21;-1.70;99.90
13174;DHT22;6652;48.802;9.190;2023-02-15T06:56:48;-1.70;99.90
13174;DHT22;6652;48.802;9.190;2023-02-15T06:59:15;-1.70;99.90
13174;DHT22;6652;48.802;9.190;2023-02-15T07:01:42;-1.70;99.90
13174;DHT22;6652;48.802;9.190;2023-02-15T07:04:09;-1.80;99.90
13174;DHT22;6652;48.802;9.190;2023-02-15T07:06:36;-1.70;99.90
13174;DHT22;6652;48.802;9.190;2023-02-15T07:09:03;-1.50;99.90
13174;DHT22;6652;48.802;9.190;2023-02-15T07:11:32;-0.50;99.90
13174;DHT22;6652;48.802;9.190;2023-02-15T07:14:17;-1.40;99.90
13174;DHT22;6652;48.802;9.190;2023-02-15T07:16:43;-1.20;99.90
13174;DHT22;6652;48.802;9.190;2023-02-15T07:19:10;-1.30;99.90
13174;DHT22;6652;48.802;9.190;2023-02-15T07:21:37;-1.20;99.90
13174;DHT22;6652;48.802;9.190;2023-02-15T07:24:04;-1.10;99.90
13174;DHT22;6652;48.802;9.190;2023-02-15T07:26:32;-1.10;99.90
13174;DHT22;6652;48.802;9.190;2023-02-15T07:28:59;-1.00;99.90
13174;DHT22;6652;48.802;9.190;2023-02-15T07:31:26;-0.90;99.90
13174;DHT22;6652;48.802;9.190;2023-02-15T07:33:53;-0.80;99.90
13174;DHT22;6652;48.802;9.190;2023-02-15T07:36:19;-0.60;99.90
13174;DHT22;6652;48.802;9.190;2023-02-15T07:38:46;-0.60;99.90
13174;DHT22;6652;48.802;9.190;2023-02-15T07:41:14;-0.50;99.90
13174;DHT22;6652;48.802;9.190;2023-02-15T07:43:44;-0.50;99.90
13174;DHT22;6652;48.802;9.190;2023-02-15T07:46:12;-0.40;99.90
13174;DHT22;6652;48.802;9.190;2023-02-15T07:48:40;-0.30;99.90
13174;DHT22;6652;48.802;9.190;2023-02-15T07:51:11;1.10;99.90
13174;DHT22;6652;48.802;9.190;2023-02-15T07:53:39;-0.10;99.90
13174;DHT22;6652;48.802;9.190;2023-02-15T07:56:09;0.00;99.90
13174;DHT22;6652;48.802;9.190;2023-02-15T07:58:37;0.10;99.90
13174;DHT22;6652;48.802;9.190;2023-02-15T08:01:24;0.10;99.90
13174;DHT22;6652;48.802;9.190;2023-02-15T08:03:52;0.20;99.90
13174;DHT22;6652;48.802;9.190;2023-02-15T08:06:19;1.10;99.90
13174;DHT22;6652;48.802;9.190;2023-02-15T08:08:46;0.40;99.90
13174;DHT22;6652;48.802;9.190;2023-02-15T08:11:18;0.50;99.90
13174;DHT22;6652;48.802;9.190;2023-02-15T08:14:04;0.50;99.90
13174;DHT22;6652;48.802;9.190;2023-02-15T08:16:35;0.80;99.90
13174;DHT22;6652;48.802;9.190;2023-02-15T08:19:04;1.50;99.90
13174;DHT22;6652;48.802;9.190;2023-02-15T08:21:32;3.20;99.90
13174;DHT22;6652;48.802;9.190;2023-02-15T08:24:00;5.20;99.90
13174;DHT22;6652;48.802;9.190;2023-02-15T08:26:28;6.80;99.90
13174;DHT22;6652;48.802;9.190;2023-02-15T08:28:56;7.90;99.90
13174;DHT22;6652;48.802;9.190;2023-02-15T08:31:23;8.20;99.90
13174;DHT22;6652;48.802;9.190;2023-02-15T08:33:53;7.90;99.90
13174;DHT22;6652;48.802;9.190;2023-02-15T08:36:21;7.70;99.90
13174;DHT22;6652;48.802;9.190;2023-02-15T08:38:48;6.90;99.90
13174;DHT22;6652;48.802;9.190;2023-02-15T08:41:17;6.20;99.90
13174;DHT22;6652;48.802;9.190;2023-02-15T08:43:46;5.40;99.90
13174;DHT22;6652;48.802;9.190;2023-02-15T08:46:15;4.90;99.90
13174;DHT22;6652;48.802;9.190;2023-02-15T08:48:42;4.30;99.90
13174;DHT22;6652;48.802;9.190;2023-02-15T08:51:12;3.80;99.90
13174;DHT22;6652;48.802;9.190;2023-02-15T08:53:41;3.60;99.90
13174;DHT22;6652;48.802;9.190;2023-02-15T08:56:08;3.50;99.90
13174;DHT22;6652;48.802;9.190;2023-02-15T08:58:36;3.40;99.90
13174;DHT22;6652;48.802;9.190;2023-02-15T09:01:09;3.30;99.90
13174;DHT22;6652;48.802;9.190;2023-02-15T09:03:36;3.20;99.90
13174;DHT22;6652;48.802;9.190;2023-02-15T09:06:03;3.10;99.90
13174;DHT22;6652;48.802;9.190;2023-02-15T09:08:32;2.90;99.90
13174;DHT22;6652;48.802;9.190;2023-02-15T09:11:06;2.90;99.90
13174;DHT22;6652;48.802;9.190;2023-02-15T09:13:34;2.70;99.90
13174;DHT22;6652;48.802;9.190;2023-02-15T09:16:01;2.70;99.90
13174;DHT22;6652;48.802;9.190;2023-02-15T09:18:30;3.30;99.90
13174;DHT22;6652;48.802;9.190;2023-02-15T09:21:03;2.80;99.90
13174;DHT22;6652;48.802;9.190;2023-02-15T09:23:31;3.00;99.90
13174;DHT22;6652;48.802;9.190;2023-02-15T09:26:02;3.10;99.90
13174;DHT22;6652;48.802;9.190;2023-02-15T09:28:29;3.40;99.90
13174;DHT22;6652;48.802;9.190;2023-02-15T09:31:04;3.70;99.90
13174;DHT22;6652;48.802;9.190;2023-02-15T09:33:33;3.70;99.90
13174;DHT22;6652;48.802;9.190;2023-02-15T09:36:00;3.90;99.90
13174;DHT22;6652;48.802;9.190;2023-02-15T09:38:27;4.00;99.90
13174;DHT22;6652;48.802;9.190;2023-02-15T09:41:04;4.10;99.90
13174;DHT22;6652;48.802;9.190;2023-02-15T09:43:36;4.00;99.90
13174;DHT22;6652;48.802;9.190;2023-02-15T09:46:20;3.90;99.90
13174;DHT22;6652;48.802;9.190;2023-02-15T09:48:52;4.10;99.90
13174;DHT22;6652;48.802;9.190;2023-02-15T09:51:45;4.30;99.90
13174;DHT22;6652;48.802;9.190;2023-02-15T09:54:37;4.40;99.90
13174;DHT22;6652;48.802;9.190;2023-02-15T09:57:15;4.60;99.90
13174;DHT22;6652;48.802;9.190;2023-02-15T09:59:52;5.90;99.90
13174;DHT22;6652;48.802;9.190;2023-02-15T10:02:36;6.70;99.90
13174;DHT22;6652;48.802;9.190;2023-02-15T10:05:12;6.90;99.90
13174;DHT22;6652;48.802;9.190;2023-02-15T10:08:10;8.80;99.90
13174;DHT22;6652;48.802;9.190;2023-02-15T10:10:43;10.00;99.90
13174;DHT22;6652;48.802;9.190;2023-02-15T10:13:26;11.90;98.60
13174;DHT22;6652;48.802;9.190;2023-02-15T10:16:04;12.30;94.80
13174;DHT22;6652;48.802;9.190;2023-02-15T10:18:49;13.10;94.20
13174;DHT22;6652;48.802;9.190;2023-02-15T10:21:28;14.10;92.90
13174;DHT22;6652;48.802;9.190;2023-02-15T10:24:30;14.30;91.30
13174;DHT22;6652;48.802;9.190;2023-02-15T10:27:08;14.30;90.30
13174;DHT22;6652;48.802;9.190;2023-02-15T10:29:44;14.80;89.30
13174;DHT22;6652;48.802;9.190;2023-02-15T10:32:22;15.40;85.90
13174;DHT22;6652;48.802;9.190;2023-02-15T10:34:51;15.50;84.20
13174;DHT22;6652;48.802;9.190;2023-02-15T10:37:38;15.70;83.50
13174;DHT22;6652;48.802;9.190;2023-02-15T10:40:16;16.00;82.00
13174;DHT22;6652;48.802;9.190;2023-02-15T10:43:08;15.70;81.40
13174;DHT22;6652;48.802;9.190;2023-02-15T10:45:49;15.40;79.50
13174;DHT22;6652;48.802;9.190;2023-02-15T10:51:34;15.40;78.30
13174;DHT22;6652;48.802;9.190;2023-02-15T10:54:13;15.50;79.60
13174;DHT22;6652;48.802;9.190;2023-02-15T10:56:50;15.30;79.70
13174;DHT22;6652;48.802;9.190;2023-02-15T10:59:39;13.40;81.30
13174;DHT22;6652;48.802;9.190;2023-02-15T11:02:20;11.00;85.10
13174;DHT22;6652;48.802;9.190;2023-02-15T11:04:54;9.70;90.70
13174;DHT22;6652;48.802;9.190;2023-02-15T11:07:25;8.50;92.40
13174;DHT22;6652;48.802;9.190;2023-02-15T11:10:00;7.80;94.30
13174;DHT22;6652;48.802;9.190;2023-02-15T11:12:28;8.70;96.30
13174;DHT22;6652;48.802;9.190;2023-02-15T11:14:58;7.10;96.70
13174;DHT22;6652;48.802;9.190;2023-02-15T11:17:35;7.00;97.30
13174;DHT22;6652;48.802;9.190;2023-02-15T11:20:14;6.80;97.80
13174;DHT22;6652;48.802;9.190;2023-02-15T11:22:47;6.80;98.40
13174;DHT22;6652;48.802;9.190;2023-02-15T11:25:18;6.70;98.80
13174;DHT22;6652;48.802;9.190;2023-02-15T11:27:47;6.80;99.00
13174;DHT22;6652;48.802;9.190;2023-02-15T11:30:17;7.00;99.30
13174;DHT22;6652;48.802;9.190;2023-02-15T11:32:48;7.10;99.40
13174;DHT22;6652;48.802;9.190;2023-02-15T11:35:22;7.20;99.50
13174;DHT22;6652;48.802;9.190;2023-02-15T11:37:54;7.30;99.60
13174;DHT22;6652;48.802;9.190;2023-02-15T11:40:26;7.50;99.60
13174;DHT22;6652;48.802;9.190;2023-02-15T11:42:56;7.40;99.40
13174;DHT22;6652;48.802;9.190;2023-02-15T11:45:27;7.40;99.60
13174;DHT22;6652;48.802;9.190;2023-02-15T11:47:56;7.40;99.80
13174;DHT22;6652;48.802;9.190;2023-02-15T11:50:25;7.50;99.90
13174;DHT22;6652;48.802;9.190;2023-02-15T11:52:56;7.60;99.90
13174;DHT22;6652;48.802;9.190;2023-02-15T11:55:24;7.70;99.90
13174;DHT22;6652;48.802;9.190;2023-02-15T11:57:54;7.70;99.90
13174;DHT22;6652;48.802;9.190;2023-02-15T12:00:31;7.90;99.90
13174;DHT22;6652;48.802;9.190;2023-02-15T12:03:07;8.10;99.90
13174;DHT22;6652;48.802;9.190;2023-02-15T12:05:37;8.30;99.90
13174;DHT22;6652;48.802;9.190;2023-02-15T12:08:14;8.70;99.90
13174;DHT22;6652;48.802;9.190;2023-02-15T12:10:48;8.50;99.90
13174;DHT22;6652;48.802;9.190;2023-02-15T12:13:19;8.60;99.90
13174;DHT22;6652;48.802;9.190;2023-02-15T12:15:48;8.60;99.90
13174;DHT22;6652;48.802;9.190;2023-02-15T12:18:21;8.60;99.90
13174;DHT22;6652;48.802;9.190;2023-02-15T12:20:51;8.70;99.90
13174;DHT22;6652;48.802;9.190;2023-02-15T12:23:19;8.90;99.90
13174;DHT22;6652;48.802;9.190;2023-02-15T12:25:51;9.10;99.90
13174;DHT22;6652;48.802;9.190;2023-02-15T12:28:30;9.10;99.70
13174;DHT22;6652;48.802;9.190;2023-02-15T12:30:58;9.20;99.70
13174;DHT22;6652;48.802;9.190;2023-02-15T12:33:29;9.20;99.40
13174;DHT22;6652;48.802;9.190;2023-02-15T12:36:00;9.10;99.30
13174;DHT22;6652;48.802;9.190;2023-02-15T12:38:28;9.50;99.50
13174;DHT22;6652;48.802;9.190;2023-02-15T12:40:59;9.10;99.50
13174;DHT22;6652;48.802;9.190;2023-02-15T12:43:32;9.10;99.40
13174;DHT22;6652;48.802;9.190;2023-02-15T12:46:21;9.00;99.40
13174;DHT22;6652;48.802;9.190;2023-02-15T12:49:05;8.90;99.70
13174;DHT22;6652;48.802;9.190;2023-02-15T12:51:42;8.90;99.90
13174;DHT22;6652;48.802;9.190;2023-02-15T12:54:17;9.10;99.90
13174;DHT22;6652;48.802;9.190;2023-02-15T12:56:44;9.10;99.90
13174;DHT22;6652;48.802;9.190;2023-02-15T12:59:14;9.20;99.90
13174;DHT22;6652;48.802;9.190;2023-02-15T13:01:42;9.00;99.90
13174;DHT22;6652;48.802;9.190;2023-02-15T13:04:23;8.90;99.90
13174;DHT22;6652;48.802;9.190;2023-02-15T13:06:52;8.90;99.90
13174;DHT22;6652;48.802;9.190;2023-02-15T13:09:24;9.10;99.90
13174;DHT22;6652;48.802;9.190;2023-02-15T13:11:53;9.10;99.90
13174;DHT22;6652;48.802;9.190;2023-02-15T13:14:22;9.40;99.90
13174;DHT22;6652;48.802;9.190;2023-02-15T13:16:53;9.00;99.90
13174;DHT22;6652;48.802;9.190;2023-02-15T13:19:31;9.00;99.90
13174;DHT22;6652;48.802;9.190;2023-02-15T13:22:02;9.00;99.90
13174;DHT22;6652;48.802;9.190;2023-02-15T13:24:35;8.90;99.90
13174;DHT22;6652;48.802;9.190;2023-02-15T13:27:15;9.00;99.90
13174;DHT22;6652;48.802;9.190;2023-02-15T13:29:44;9.00;99.90
13174;DHT22;6652;48.802;9.190;2023-02-15T13:32:19;8.90;99.90
13174;DHT22;6652;48.802;9.190;2023-02-15T13:34:47;9.20;99.90
13174;DHT22;6652;48.802;9.190;2023-02-15T13:37:18;9.00;99.90
13174;DHT22;6652;48.802;9.190;2023-02-15T13:39:50;9.60;99.90
13174;DHT22;6652;48.802;9.190;2023-02-15T13:42:22;9.00;99.90
13174;DHT22;6652;48.802;9.190;2023-02-15T13:45:01;9.10;99.90
13174;DHT22;6652;48.802;9.190;2023-02-15T13:47:34;9.50;99.90
13174;DHT22;6652;48.802;9.190;2023-02-15T13:50:19;9.00;99.90
13174;DHT22;6652;48.802;9.190;2023-02-15T13:52:51;9.20;99.90
13174;DHT22;6652;48.802;9.190;2023-02-15T13:55:38;9.20;99.90
13174;DHT22;6652;48.802;9.190;2023-02-15T13:58:31;9.20;99.90
13174;DHT22;6652;48.802;9.190;2023-02-15T14:01:09;9.30;99.90
13174;DHT22;6652;48.802;9.190;2023-02-15T14:04:04;9.30;99.90
13174;DHT22;6652;48.802;9.190;2023-02-15T14:06:50;9.20;99.90
13174;DHT22;6652;48.802;9.190;2023-02-15T14:09:27;9.20;99.90
13174;DHT22;6652;48.802;9.190;2023-02-15T14:12:16;9.20;99.90
13174;DHT22;6652;48.802;9.190;2023-02-15T14:14:58;9.20;99.90
13174;DHT22;6652;48.802;9.190;2023-02-15T14:17:33;9.30;99.90
13174;DHT22;6652;48.802;9.190;2023-02-15T14:20:08;9.30;99.90
13174;DHT22;6652;48.802;9.190;2023-02-15T14:22:45;9.30;99.90
13174;DHT22;6652;48.802;9.190;2023-02-15T14:25:20;10.00;99.50
13174;DHT22;6652;48.802;9.190;2023-02-15T14:28:00;9.30;99.40
13174;DHT22;6652;48.802;9.190;2023-02-15T14:30:32;9.40;99.00
13174;DHT22;6652;48.802;9.190;2023-02-15T14:33:04;9.30;98.90
13174;DHT22;6652;48.802;9.190;2023-02-15T14:35:32;9.40;98.80
13174;DHT22;6652;48.802;9.190;2023-02-15T14:38:36;9.40;98.80
13174;DHT22;6652;48.802;9.190;2023-02-15T14:41:11;8.80;98.60
13174;DHT22;6652;48.802;9.190;2023-02-15T14:43:47;9.40;98.50
13174;DHT22;6652;48.802;9.190;2023-02-15T14:46:20;9.30;98.50
13174;DHT22;6652;48.802;9.190;2023-02-15T14:48:52;9.30;98.10
13174;DHT22;6652;48.802;9.190;2023-02-15T14:51:54;9.40;98.40
13174;DHT22;6652;48.802;9.190;2023-02-15T14:54:55;9.40;98.30
13174;DHT22;6652;48.802;9.190;2023-02-15T14:57:25;9.40;98.20
13174;DHT22;6652;48.802;9.190;2023-02-15T14:59:54;9.40;97.90
13174;DHT22;6652;48.802;9.190;2023-02-15T15:02:24;9.50;97.90
13174;DHT22;6652;48.802;9.190;2023-02-15T15:05:07;9.50;98.10
13174;DHT22;6652;48.802;9.190;2023-02-15T15:07:42;9.50;98.10
13174;DHT22;6652;48.802;9.190;2023-02-15T15:10:34;9.50;98.00
13174;DHT22;6652;48.802;9.190;2023-02-15T15:13:34;9.50;98.00
13174;DHT22;6652;48.802;9.190;2023-02-15T15:16:45;9.70;98.50
13174;DHT22;6652;48.802;9.190;2023-02-15T15:22:35;9.40;97.90
13174;DHT22;6652;48.802;9.190;2023-02-15T15:25:03;9.40;97.90
13174;DHT22;6652;48.802;9.190;2023-02-15T15:30:58;9.40;98.40
13174;DHT22;6652;48.802;9.190;2023-02-15T15:42:55;9.10;98.90
13174;DHT22;6652;48.802;9.190;2023-02-15T15:45:43;9.10;99.00
13174;DHT22;6652;48.802;9.190;2023-02-15T15:48:32;9.00;99.00
13174;DHT22;6652;48.802;9.190;2023-02-15T15:51:03;9.00;99.20
13174;DHT22;6652;48.802;9.190;2023-02-15T15:53:37;9.00;99.30
13174;DHT22;6652;48.802;9.190;2023-02-15T15:56:10;8.90;99.40
13174;DHT22;6652;48.802;9.190;2023-02-15T15:58:43;8.90;99.60
13174;DHT22;6652;48.802;9.190;2023-02-15T16:01:11;8.80;99.60
13174;DHT22;6652;48.802;9.190;2023-02-15T16:03:48;8.80;99.70
13174;DHT22;6652;48.802;9.190;2023-02-15T16:06:31;8.70;99.70
13174;DHT22;6652;48.802;9.190;2023-02-15T16:09:13;8.70;99.80
13174;DHT22;6652;48.802;9.190;2023-02-15T16:11:42;8.60;99.80
13174;DHT22;6652;48.802;9.190;2023-02-15T16:14:12;8.60;99.90
13174;DHT22;6652;48.802;9.190;2023-02-15T16:16:40;8.50;99.80
13174;DHT22;6652;48.802;9.190;2023-02-15T16:19:22;8.50;99.90
13174;DHT22;6652;48.802;9.190;2023-02-15T16:21:50;8.30;99.90
13174;DHT22;6652;48.802;9.190;2023-02-15T16:27:33;8.10;99.90
13174;DHT22;6652;48.802;9.190;2023-02-15T16:30:22;8.00;99.90
13174;DHT22;6652;48.802;9.190;2023-02-15T16:32:51;7.90;99.90
13174;DHT22;6652;48.802;9.190;2023-02-15T16:35:21;7.80;99.90
13174;DHT22;6652;48.802;9.190;2023-02-15T16:37:48;7.70;99.90
13174;DHT22;6652;48.802;9.190;2023-02-15T16:40:31;7.60;99.90
13174;DHT22;6652;48.802;9.190;2023-02-15T16:43:03;7.50;99.90
13174;DHT22;6652;48.802;9.190;2023-02-15T16:45:34;7.40;99.90
13174;DHT22;6652;48.802;9.190;2023-02-15T16:48:06;7.30;99.90
13174;DHT22;6652;48.802;9.190;2023-02-15T16:50:37;7.10;99.90
13174;DHT22;6652;48.802;9.190;2023-02-15T16:53:07;7.10;99.90
13174;DHT22;6652;48.802;9.190;2023-02-15T16:55:49;7.00;99.90